Terminal Aerodrome Forecast
Issued by NWS

Home | Current Version | Previous Version | Text Only | Print | Product List | Glossary On
Versions: 1 2 3 4 5 6 7 8 9 10 11 12 13 14 15 16 17
000
FTUS45 KABQ 302100 AAB
TAFGUP
TAF AMD
KGUP 302127Z 3021/3118 25012G20KT P6SM VCSH BKN090
     FM310100 22008KT P6SM BKN090
     FM310700 12009KT P6SM VCSH BKN070
     FM311600 22007KT P6SM BKN080=

USA.gov is the U.S. government's official web portal to all federal, state and local government web resources and services.